createdAt,value
2022-10-09T00:01:06.351Z,12.50
2022-10-09T00:06:33.568Z,12.48
2022-10-09T00:11:55.469Z,12.33
2022-10-09T00:17:17.292Z,12.29
2022-10-09T00:22:39.435Z,12.38
2022-10-09T00:28:02.530Z,12.45
2022-10-09T00:33:24.514Z,12.45
2022-10-09T00:38:46.363Z,12.61
2022-10-09T00:44:47.017Z,12.46
2022-10-09T00:50:17.515Z,12.62
2022-10-09T00:55:40.138Z,12.50
2022-10-09T01:01:02.020Z,12.26
2022-10-09T01:06:48.152Z,12.18
2022-10-09T01:12:34.987Z,12.09
2022-10-09T01:18:12.333Z,12.19
2022-10-09T01:24:04.567Z,12.20
2022-10-09T01:29:31.915Z,12.16
2022-10-09T01:34:54.318Z,12.07
2022-10-09T01:40:18.124Z,12.00
2022-10-09T01:45:43.226Z,11.85
2022-10-09T01:51:05.742Z,11.83
2022-10-09T01:56:30.929Z,11.87
2022-10-09T02:01:54.100Z,11.92
2022-10-09T02:07:17.725Z,11.83
2022-10-09T02:12:45.761Z,11.78
2022-10-09T02:18:13.939Z,11.69
2022-10-09T02:23:39.139Z,11.64
2022-10-09T02:29:01.105Z,11.52
2022-10-09T02:34:23.057Z,11.24
2022-10-09T02:39:44.849Z,11.03
2022-10-09T02:45:07.535Z,11.02
2022-10-09T02:50:29.351Z,10.78
2022-10-09T02:55:51.186Z,10.67
2022-10-09T03:01:13.237Z,10.61
2022-10-09T03:06:35.033Z,10.46
2022-10-09T03:11:56.845Z,10.36
2022-10-09T03:17:18.759Z,10.23
2022-10-09T03:22:40.690Z,10.18
2022-10-09T03:28:02.957Z,10.14
2022-10-09T03:33:24.848Z,9.99
2022-10-09T03:38:46.732Z,9.98
2022-10-09T03:44:08.801Z,9.89
2022-10-09T03:49:30.772Z,9.88
2022-10-09T03:54:52.600Z,9.93
2022-10-09T04:00:15.263Z,10.02
2022-10-09T04:05:38.686Z,10.20
2022-10-09T04:11:01.157Z,10.32
2022-10-09T04:16:23.046Z,10.33
2022-10-09T04:21:44.950Z,10.40
2022-10-09T04:27:06.764Z,10.36
2022-10-09T04:32:28.594Z,10.36
2022-10-09T04:37:50.448Z,10.34
2022-10-09T04:43:12.333Z,10.39
2022-10-09T04:48:46.259Z,10.34
2022-10-09T04:54:09.255Z,10.37
2022-10-09T04:59:31.063Z,10.46
2022-10-09T05:04:52.934Z,10.60
2022-10-09T05:10:14.844Z,10.49
2022-10-09T05:15:37.418Z,10.42
2022-10-09T05:20:59.486Z,10.38
2022-10-09T05:26:23.482Z,10.44
2022-10-09T05:31:49.293Z,10.34
2022-10-09T05:37:11.591Z,10.38
2022-10-09T05:42:33.408Z,10.59
2022-10-09T05:47:55.278Z,10.64
2022-10-09T05:53:17.204Z,10.71
2022-10-09T05:58:39.030Z,10.76
2022-10-09T06:04:02.008Z,10.85
2022-10-09T06:09:25.290Z,10.95
2022-10-09T06:14:47.115Z,11.05
2022-10-09T06:20:10.178Z,11.23
2022-10-09T06:25:32.007Z,11.22
2022-10-09T06:30:53.923Z,11.49
2022-10-09T06:36:18.688Z,11.67
2022-10-09T06:41:40.913Z,11.56
2022-10-09T06:47:02.797Z,11.73
2022-10-09T06:52:24.631Z,11.65
2022-10-09T06:57:46.418Z,11.88
2022-10-09T07:03:08.307Z,11.67
2022-10-09T07:08:30.182Z,11.90
2022-10-09T07:13:56.052Z,12.06
2022-10-09T07:19:18.782Z,12.44
2022-10-09T07:24:40.678Z,12.56
2022-10-09T07:30:02.529Z,12.31
2022-10-09T07:35:26.953Z,12.30
2022-10-09T07:40:48.848Z,12.48
2022-10-09T07:46:16.188Z,12.45
2022-10-09T07:51:38.406Z,12.74
2022-10-09T07:57:01.334Z,13.05
2022-10-09T08:02:23.267Z,13.80
2022-10-09T08:07:45.220Z,14.14
2022-10-09T08:13:07.092Z,13.76
2022-10-09T08:18:28.904Z,13.88
2022-10-09T08:23:54.741Z,14.16
2022-10-09T08:29:16.546Z,13.81
2022-10-09T08:34:38.373Z,13.66
2022-10-09T08:40:00.227Z,13.64
2022-10-09T08:45:22.113Z,13.68
2022-10-09T08:50:49.970Z,13.57
2022-10-09T08:56:15.062Z,13.39
2022-10-09T09:01:43.376Z,13.83
2022-10-09T09:07:23.937Z,14.04
2022-10-09T09:12:55.197Z,13.96
2022-10-09T09:18:24.114Z,13.90
2022-10-09T09:23:47.364Z,14.56
2022-10-09T09:29:13.812Z,15.09
2022-10-09T09:34:41.347Z,15.19
2022-10-09T09:45:47.369Z,15.41
2022-10-09T09:51:28.795Z,15.15
2022-10-09T09:57:11.942Z,15.10
2022-10-09T10:02:35.029Z,14.81
2022-10-09T10:07:56.894Z,15.04
2022-10-09T10:13:21.872Z,15.05
2022-10-09T10:18:43.769Z,15.23
2022-10-09T10:24:11.955Z,15.01
2022-10-09T10:29:38.603Z,14.84
2022-10-09T10:35:00.280Z,13.86
2022-10-09T10:40:30.218Z,14.78
2022-10-09T10:46:13.013Z,14.88
2022-10-09T10:51:58.073Z,14.84
2022-10-09T10:57:46.765Z,14.30
2022-10-09T11:03:17.852Z,14.09
2022-10-09T11:09:01.159Z,14.39
2022-10-09T11:14:47.728Z,14.56
2022-10-09T11:20:15.374Z,14.36
2022-10-09T11:25:59.162Z,14.65
2022-10-09T11:31:43.026Z,14.79
2022-10-09T11:37:14.626Z,15.04
2022-10-09T11:42:36.577Z,14.96
2022-10-09T11:48:12.662Z,14.68
2022-10-09T11:53:35.578Z,14.97
2022-10-09T11:59:06.330Z,14.89
2022-10-09T12:04:50.011Z,15.05
2022-10-09T12:10:32.138Z,14.57
2022-10-09T12:15:57.088Z,14.82
2022-10-09T12:21:25.248Z,14.93
2022-10-09T12:26:49.621Z,14.65
2022-10-09T12:32:17.618Z,14.44
2022-10-09T12:37:39.409Z,14.67
2022-10-09T12:43:07.861Z,15.04
2022-10-09T12:48:38.713Z,15.01
2022-10-09T12:54:08.546Z,14.63
2022-10-09T12:59:30.501Z,15.16
2022-10-09T13:04:59.122Z,15.17
2022-10-09T13:10:23.717Z,15.60
2022-10-09T13:15:45.755Z,15.66
2022-10-09T13:21:16.575Z,15.52
2022-10-09T13:26:40.555Z,14.99
2022-10-09T13:32:02.473Z,15.51
2022-10-09T13:37:26.469Z,15.47
2022-10-09T13:42:55.696Z,15.65
2022-10-09T13:48:17.527Z,15.69
2022-10-09T13:53:39.415Z,15.78
2022-10-09T13:59:01.208Z,15.57
2022-10-09T14:04:23.305Z,14.97
2022-10-09T14:09:45.126Z,14.79
2022-10-09T14:15:07.380Z,14.65
2022-10-09T14:20:29.207Z,14.56
2022-10-09T14:25:51.102Z,14.93
2022-10-09T14:31:13.146Z,14.63
2022-10-09T14:36:34.946Z,14.48
2022-10-09T14:41:56.767Z,13.99
2022-10-09T14:47:18.584Z,14.31
2022-10-09T14:52:40.425Z,14.15
2022-10-09T14:58:02.279Z,14.06
2022-10-09T15:03:25.558Z,13.86
2022-10-09T15:08:47.445Z,13.60
2022-10-09T15:14:09.371Z,13.45
2022-10-09T15:19:31.225Z,13.34
2022-10-09T15:24:53.072Z,13.09
2022-10-09T15:30:15.078Z,12.91
2022-10-09T15:35:36.931Z,12.55
2022-10-09T15:40:58.843Z,12.32
2022-10-09T15:46:21.151Z,12.07
2022-10-09T15:51:43.097Z,11.93
2022-10-09T15:57:04.982Z,11.77
2022-10-09T16:02:26.828Z,11.67
2022-10-09T16:07:48.895Z,11.58
2022-10-09T16:13:11.162Z,11.30
2022-10-09T16:18:33.642Z,11.21
2022-10-09T16:23:58.816Z,11.10
2022-10-09T16:29:21.241Z,10.92
2022-10-09T16:34:43.189Z,10.93
2022-10-09T16:40:05.866Z,10.84
2022-10-09T16:45:28.341Z,10.78
2022-10-09T16:50:50.198Z,10.60
2022-10-09T16:56:16.965Z,10.55
2022-10-09T17:01:39.196Z,10.07
2022-10-09T17:07:01.107Z,10.32
2022-10-09T17:12:22.958Z,10.32
2022-10-09T17:17:44.776Z,10.28
2022-10-09T17:23:06.872Z,10.23
2022-10-09T17:28:28.808Z,10.19
2022-10-09T17:33:58.120Z,10.11
2022-10-09T17:39:19.968Z,9.99
2022-10-09T17:44:41.819Z,9.96
2022-10-09T17:50:03.967Z,9.93
2022-10-09T17:55:26.114Z,9.87
2022-10-09T18:00:48.078Z,9.73
2022-10-09T18:06:14.077Z,9.75
2022-10-09T18:11:36.088Z,9.65
2022-10-09T18:16:57.979Z,9.55
2022-10-09T18:22:19.793Z,9.55
2022-10-09T18:27:41.594Z,9.50
2022-10-09T18:33:03.491Z,9.46
2022-10-09T18:38:25.292Z,9.40
2022-10-09T18:43:48.042Z,9.31
2022-10-09T18:49:12.330Z,9.26
2022-10-09T18:54:34.314Z,9.20
2022-10-09T18:59:58.262Z,9.15
2022-10-09T19:05:20.057Z,9.08
2022-10-09T19:10:41.887Z,9.13
2022-10-09T19:16:03.762Z,9.10
2022-10-09T19:21:25.798Z,8.98
2022-10-09T19:26:47.606Z,8.82
2022-10-09T19:32:09.429Z,8.78
2022-10-09T19:37:31.244Z,8.85
2022-10-09T19:42:53.074Z,8.74
2022-10-09T19:48:15.759Z,8.67
2022-10-09T19:53:38.294Z,8.62
2022-10-09T19:59:02.835Z,8.53
2022-10-09T20:04:24.691Z,8.46
2022-10-09T20:09:46.515Z,8.45
2022-10-09T20:15:09.019Z,8.41
2022-10-09T20:20:30.831Z,8.32
2022-10-09T20:26:04.993Z,8.22
2022-10-09T20:31:27.912Z,8.16
2022-10-09T20:36:49.696Z,8.14
2022-10-09T20:42:11.571Z,7.98
2022-10-09T20:47:33.570Z,7.83
2022-10-09T20:52:55.369Z,7.84
2022-10-09T20:58:17.194Z,7.89
2022-10-09T21:03:39.254Z,7.77
2022-10-09T21:09:01.110Z,7.77
2022-10-09T21:14:22.942Z,7.69
2022-10-09T21:19:44.868Z,7.68
2022-10-09T21:25:07.024Z,7.68
2022-10-09T21:30:29.182Z,7.50
2022-10-09T21:35:52.191Z,7.48
2022-10-09T21:41:14.014Z,7.53
2022-10-09T21:46:36.705Z,7.42
2022-10-09T21:51:58.556Z,7.40
2022-10-09T21:57:20.519Z,7.26
2022-10-09T22:02:42.572Z,7.15
2022-10-09T22:08:04.411Z,7.09
2022-10-09T22:13:26.293Z,6.96
2022-10-09T22:18:48.117Z,6.84
2022-10-09T22:24:10.050Z,6.76
2022-10-09T22:29:31.901Z,6.77
2022-10-09T22:34:53.781Z,6.74
2022-10-09T22:40:15.789Z,6.68
2022-10-09T22:45:38.084Z,6.68
2022-10-09T22:51:01.872Z,6.52
2022-10-09T22:56:29.867Z,6.50
2022-10-09T23:01:54.521Z,6.44
2022-10-09T23:07:16.400Z,6.44
2022-10-09T23:12:38.244Z,6.40
2022-10-09T23:18:00.092Z,6.33
2022-10-09T23:23:22.517Z,6.22
2022-10-09T23:28:56.096Z,6.05
2022-10-09T23:34:17.955Z,6.02
2022-10-09T23:39:39.765Z,6.09
2022-10-09T23:45:01.772Z,6.05
2022-10-09T23:50:23.585Z,6.04
2022-10-09T23:55:45.793Z,6.02
